Time;durP1;ratioP1;P1;durP2;ratioP2;P2;SDS_P1;SDS_P2;PMS_P1;PMS_P2;Temp;Humidity;BMP_temperature;BMP_pressure;BME280_temperature;BME280_humidity;BME280_pressure;Samples;Min_cycle;Max_cycle;Signal;HPM_P1;HPM_P2
2023/11/04 00:01:37;;;;;;;0.50;0.50;;;;;;;;;;5080151;28;20020;-84
2023/11/04 00:04:03;;;;;;;0.57;0.57;;;;;;;;;;5072965;28;20081;-84
2023/11/04 00:06:29;;;;;;;0.50;0.50;;;;;;;;;;5082381;28;20039;-83
2023/11/04 00:08:55;;;;;;;0.70;0.63;;;;;;;;;;5070948;28;20024;-84
2023/11/04 00:11:22;;;;;;;0.60;0.57;;;;;;;;;;5069884;28;20034;-84
2023/11/04 00:13:48;;;;;;;0.60;0.50;;;;;;;;;;5086884;28;20500;-84
2023/11/04 00:16:14;;;;;;;0.50;0.50;;;;;;;;;;5089384;28;20016;-84
2023/11/04 00:18:40;;;;;;;0.50;0.50;;;;;;;;;;5060289;28;20039;-83
2023/11/04 00:21:10;;;;;;;1.67;0.70;;;8.40;96.60;;;;;;5070013;28;20031;-84
2023/11/04 00:23:36;;;;;;;1.35;1.02;;;;;;;;;;5070865;28;20067;-84
2023/11/04 00:26:02;;;;;;;0.50;0.50;;;8.50;99.90;;;;;;5069169;28;20435;-84
2023/11/04 00:28:29;;;;;;;1.55;1.05;;;;;;;;;;5070598;28;20047;-83
2023/11/04 00:30:55;;;;;;;6.50;1.70;;;;;;;;;;5070108;28;20028;-84
2023/11/04 00:33:21;;;;;;;3.53;1.52;;;;;;;;;;5071952;28;20455;-84
2023/11/04 00:35:47;;;;;;;29.65;9.70;;;;;;;;;;5073985;28;20035;-83
2023/11/04 00:38:13;;;;;;;9.57;4.50;;;;;;;;;;5074961;28;20511;-83
2023/11/04 00:40:41;;;;;;;8.63;3.63;;;;;;;;;;5074195;28;20025;-83
2023/11/04 00:43:08;;;;;;;5.72;1.67;;;;;;;;;;5074928;28;20040;-83
2023/11/04 00:45:34;;;;;;;4.65;1.15;;;;;;;;;;5074593;28;20255;-84
2023/11/04 00:48:00;;;;;;;8.80;4.43;;;;;;;;;;5074670;28;20103;-83
2023/11/04 00:50:29;;;;;;;11.98;4.68;;;;;;;;;;5074163;28;20492;-84
2023/11/04 00:52:54;;;;;;;8.70;1.88;;;;;;;;;;5071818;28;20042;-84
2023/11/04 00:55:20;;;;;;;3.83;1.50;;;;;;;;;;5073921;28;20044;-84
2023/11/04 00:57:46;;;;;;;1.85;1.15;;;;;;;;;;5074355;28;20100;-84
2023/11/04 01:00:13;;;;;;;1.45;0.90;;;8.10;97.70;;;;;;5074027;28;20020;-84
2023/11/04 01:02:39;;;;;;;0.80;0.68;;;;;;;;;;5074464;28;20080;-83
2023/11/04 01:05:05;;;;;;;1.00;0.82;;;;;;;;;;5074990;28;20488;-84
2023/11/04 01:07:31;;;;;;;1.98;0.70;;;8.00;97.40;;;;;;5075720;28;20025;-83
2023/11/04 01:09:57;;;;;;;1.27;0.85;;;;;;;;;;5073072;28;20024;-83
2023/11/04 01:12:23;;;;;;;5.10;1.13;;;;;;;;;;5073653;28;20035;-83
2023/11/04 01:14:49;;;;;;;0.80;0.80;;;;;;;;;;5072779;28;20020;-83
2023/11/04 01:17:17;;;;;;;1.30;0.70;;;;;;;;;;5072271;28;20029;-83
2023/11/04 01:19:43;;;;;;;1.08;0.85;;;;;;;;;;5072473;28;20032;-84
2023/11/04 01:22:09;;;;;;;0.60;0.60;;;;;;;;;;5079022;28;20028;-83
2023/11/04 01:24:35;;;;;;;0.52;0.50;;;;;;;;;;5092662;28;20111;-84
2023/11/04 01:27:01;;;;;;;0.70;0.70;;;;;;;;;;5083943;28;20201;-84
2023/11/04 01:29:27;;;;;;;0.50;0.50;;;;;;;;;;5072569;28;20138;-84
2023/11/04 01:31:53;;;;;;;0.40;0.40;;;;;;;;;;5072006;28;20120;-84
2023/11/04 01:34:19;;;;;;;0.50;0.50;;;;;;;;;;5072717;28;20046;-84
2023/11/04 01:36:45;;;;;;;0.50;0.50;;;;;;;;;;5072502;28;20025;-84
2023/11/04 01:39:14;;;;;;;0.80;0.73;;;;;;;;;;5085392;28;20118;-84
2023/11/04 01:41:40;;;;;;;2.08;0.40;;;;;;;;;;5091521;28;20024;-84
2023/11/04 01:44:06;;;;;;;0.60;0.60;;;;;;;;;;5090855;28;20482;-84
2023/11/04 01:46:32;;;;;;;0.88;0.47;;;;;;;;;;5084751;28;20100;-84
2023/11/04 01:48:58;;;;;;;0.40;0.40;;;;;;;;;;5086086;28;20031;-84
2023/11/04 01:51:25;;;;;;;0.50;0.50;;;;;;;;;;5090875;28;20028;-83
2023/11/04 01:53:53;;;;;;;0.50;0.47;;;8.30;97.20;;;;;;5092351;28;20036;-84
2023/11/04 01:56:29;;;;;;;0.40;0.40;;;8.40;99.90;;;;;;5065663;28;20034;-84
2023/11/04 01:58:57;;;;;;;0.47;0.45;;;8.50;96.70;;;;;;5092224;28;20377;-83
2023/11/04 02:01:24;;;;;;;1.17;0.43;;;;;;;;;;5091052;28;20444;-83
2023/11/04 02:03:51;;;;;;;0.40;0.40;;;;;;;;;;5090332;28;20042;-84
2023/11/04 02:06:17;;;;;;;0.30;0.30;;;;;;;;;;5085919;28;20066;-84
2023/11/04 02:08:43;;;;;;;0.40;0.40;;;;;;;;;;5078325;28;20034;-84
2023/11/04 02:11:09;;;;;;;1.83;0.60;;;;;;;;;;5083415;28;20025;-84
2023/11/04 02:13:37;;;;;;;0.82;0.82;;;;;;;;;;5085674;28;20039;-84
2023/11/04 02:16:03;;;;;;;0.40;0.40;;;8.90;98.80;;;;;;5071542;28;20481;-84
2023/11/04 02:18:30;;;;;;;0.30;0.30;;;;;;;;;;5071892;28;20086;-83
2023/11/04 02:20:59;;;;;;;7.53;0.50;;;9.00;97.90;;;;;;5071592;28;20029;-83
2023/11/04 02:23:26;;;;;;;0.35;0.35;;;9.00;94.10;;;;;;5071726;28;20024;-83
2023/11/04 02:25:52;;;;;;;0.40;0.40;;;;;;;;;;5071281;28;20020;-83
2023/11/04 02:28:18;;;;;;;0.63;0.40;;;;;;;;;;5070308;28;20066;-83
2023/11/04 02:30:44;;;;;;;0.40;0.40;;;;;;;;;;5071665;28;20028;-83
2023/11/04 02:33:10;;;;;;;0.30;0.30;;;;;;;;;;5071819;28;20064;-83
2023/11/04 02:35:37;;;;;;;0.40;0.40;;;;;;;;;;5070224;28;20054;-83
2023/11/04 02:38:03;;;;;;;0.40;0.40;;;;;;;;;;5074467;28;20432;-84
2023/11/04 02:40:29;;;;;;;0.47;0.40;;;;;;;;;;5090965;28;20028;-83
2023/11/04 02:42:55;;;;;;;0.30;0.30;;;;;;;;;;5090977;28;20031;-84
2023/11/04 02:45:21;;;;;;;0.90;0.40;;;;;;;;;;5080940;28;20039;-83
2023/11/04 02:47:47;;;;;;;0.35;0.35;;;;;;;;;;5071511;28;20025;-84
2023/11/04 02:50:13;;;;;;;0.43;0.43;;;;;;;;;;5071215;28;20107;-84
2023/11/04 02:52:42;;;;;;;1.05;0.50;;;9.10;98.10;;;;;;5071659;28;20463;-84
2023/11/04 02:55:08;;;;;;;0.43;0.43;;;9.20;99.60;;;;;;5069768;28;20522;-84
2023/11/04 02:57:34;;;;;;;0.30;0.30;;;;;;;;;;5065160;28;20425;-83
2023/11/04 03:00:00;;;;;;;0.43;0.43;;;;;;;;;;5070301;28;20024;-83
2023/11/04 03:02:26;;;;;;;0.47;0.47;;;;;;;;;;5069328;28;20031;-83
2023/11/04 03:04:55;;;;;;;0.50;0.50;;;;;;;;;;5070769;28;20020;-83
2023/11/04 03:07:21;;;;;;;0.73;0.73;;;;;;;;;;5083512;28;20579;-83
2023/11/04 03:09:47;;;;;;;0.43;0.43;;;;;;;;;;5077889;28;20456;-83
2023/11/04 03:12:13;;;;;;;0.47;0.45;;;;;;;;;;5089406;28;20074;-83
2023/11/04 03:14:43;;;;;;;0.30;0.30;;;9.10;91.40;;;;;;5073546;28;20035;-83
2023/11/04 03:17:08;;;;;;;0.40;0.40;;;9.40;96.10;;;;;;5078422;28;20040;-82
2023/11/04 03:19:34;;;;;;;0.40;0.40;;;;;;;;;;5069098;28;20024;-83
2023/11/04 03:22:01;;;;;;;0.50;0.40;;;;;;;;;;5070126;28;20080;-82
2023/11/04 03:24:27;;;;;;;2.40;0.40;;;;;;;;;;5070948;28;20025;-83
2023/11/04 03:26:53;;;;;;;0.73;0.57;;;;;;;;;;5070450;28;20451;-83
2023/11/04 03:29:19;;;;;;;0.50;0.50;;;;;;;;;;5070728;28;20584;-83
2023/11/04 03:31:45;;;;;;;0.30;0.30;;;;;;;;;;5070268;28;20104;-83
2023/11/04 03:34:11;;;;;;;0.47;0.47;;;;;;;;;;5070151;28;20439;-83
2023/11/04 03:36:37;;;;;;;0.40;0.40;;;;;;;;;;5070862;28;20025;-83
2023/11/04 03:39:03;;;;;;;0.30;0.30;;;9.00;98.20;;;;;;5069738;28;20062;-83
2023/11/04 03:41:29;;;;;;;0.40;0.40;;;;;;;;;;5086636;28;20430;-83
2023/11/04 03:43:55;;;;;;;0.50;0.50;;;;;;;;;;5089328;28;20089;-83
2023/11/04 03:46:21;;;;;;;1.00;0.50;;;;;;;;;;5089396;28;20051;-83
2023/11/04 03:48:48;;;;;;;0.90;0.50;;;;;;;;;;5089145;28;20069;-82
2023/11/04 03:51:14;;;;;;;0.38;0.38;;;;;;;;;;5087440;28;20058;-82
2023/11/04 03:53:40;;;;;;;0.40;0.40;;;;;;;;;;5082167;28;20060;-83
2023/11/04 03:56:06;;;;;;;0.57;0.40;;;;;;;;;;5085503;28;20026;-83
2023/11/04 03:58:32;;;;;;;0.30;0.30;;;;;;;;;;5089016;28;20035;-83
2023/11/04 04:00:58;;;;;;;2.38;0.75;;;;;;;;;;5087840;28;20533;-83
2023/11/04 04:03:24;;;;;;;0.55;0.55;;;;;;;;;;5089291;28;20028;-82
2023/11/04 04:05:50;;;;;;;0.40;0.40;;;;;;;;;;5074644;28;20495;-84
2023/11/04 04:08:16;;;;;;;0.45;0.40;;;;;;;;;;5089526;28;20024;-83
2023/11/04 04:10:42;;;;;;;0.47;0.47;;;;;;;;;;5083992;28;20454;-84
2023/11/04 04:13:08;;;;;;;0.45;0.45;;;;;;;;;;5080683;28;20032;-83
2023/11/04 04:15:34;;;;;;;0.40;0.40;;;;;;;;;;5076024;28;20028;-83
2023/11/04 04:18:00;;;;;;;0.40;0.40;;;;;;;;;;5078988;28;20029;-83
2023/11/04 04:20:27;;;;;;;0.73;0.40;;;;;;;;;;5068184;28;20032;-82
2023/11/04 04:22:53;;;;;;;0.40;0.40;;;9.60;97.50;;;;;;5069817;28;20040;-83
2023/11/04 04:25:19;;;;;;;0.30;0.30;;;;;;;;;;5068644;28;20029;-82
2023/11/04 04:27:45;;;;;;;0.30;0.30;;;;;;;;;;5070458;28;20430;-83
2023/11/04 04:30:11;;;;;;;0.43;0.43;;;;;;;;;;5069944;28;20029;-83
2023/11/04 04:32:37;;;;;;;0.40;0.40;;;;;;;;;;5069790;28;20062;-83
2023/11/04 04:35:03;;;;;;;0.40;0.40;;;9.30;97.60;;;;;;5069811;28;20031;-83
2023/11/04 04:37:29;;;;;;;0.32;0.32;;;;;;;;;;5068660;28;20481;-83
2023/11/04 04:39:55;;;;;;;0.40;0.40;;;;;;;;;;5070371;28;20132;-83
2023/11/04 04:42:21;;;;;;;0.32;0.32;;;;;;;;;;5070036;28;20028;-83
2023/11/04 04:44:47;;;;;;;0.35;0.35;;;;;;;;;;5070558;28;20053;-83
2023/11/04 04:47:13;;;;;;;0.20;0.20;;;;;;;;;;5070401;28;20021;-83
2023/11/04 04:49:40;;;;;;;0.30;0.30;;;;;;;;;;5070657;28;20023;-83
2023/11/04 04:52:06;;;;;;;0.30;0.30;;;;;;;;;;5070047;28;20089;-83
2023/11/04 04:54:32;;;;;;;0.32;0.32;;;;;;;;;;5070604;28;20834;-83
2023/11/04 04:56:58;;;;;;;0.32;0.28;;;;;;;;;;5069970;28;20035;-83
2023/11/04 04:59:24;;;;;;;0.30;0.30;;;;;;;;;;5070100;28;20086;-83
2023/11/04 05:01:51;;;;;;;0.30;0.30;;;;;;;;;;5069501;28;20020;-83
2023/11/04 05:04:17;;;;;;;0.40;0.40;;;;;;;;;;5068368;28;20059;-83
2023/11/04 05:06:43;;;;;;;0.30;0.30;;;;;;;;;;5079514;28;20208;-83
2023/11/04 05:09:09;;;;;;;0.47;0.35;;;;;;;;;;5084813;28;20033;-83
2023/11/04 05:11:35;;;;;;;0.30;0.30;;;;;;;;;;5068864;28;20135;-83
2023/11/04 05:14:01;;;;;;;0.30;0.30;;;;;;;;;;5069203;28;20043;-83
2023/11/04 05:16:27;;;;;;;0.30;0.30;;;;;;;;;;5080130;28;20107;-83
2023/11/04 05:18:53;;;;;;;0.30;0.30;;;;;;;;;;5072788;28;20497;-83
2023/11/04 05:21:23;;;;;;;0.30;0.30;;;9.50;86.70;;;;;;5073086;28;20112;-83
2023/11/04 05:23:50;;;;;;;0.38;0.38;;;;;;;;;;5085852;28;20032;-83
2023/11/04 05:26:16;;;;;;;0.30;0.30;;;;;;;;;;5081570;28;20566;-84
2023/11/04 05:28:42;;;;;;;0.85;0.30;;;;;;;;;;5073177;28;20115;-83
2023/11/04 05:31:08;;;;;;;0.40;0.40;;;9.60;85.60;;;;;;5072597;28;20039;-83
2023/11/04 05:33:35;;;;;;;0.25;0.25;;;;;;;;;;5072480;28;20519;-84
2023/11/04 05:36:01;;;;;;;0.47;0.47;;;;;;;;;;5073088;28;20025;-83
2023/11/04 05:38:27;;;;;;;0.32;0.32;;;;;;;;;;5072581;28;20025;-84
2023/11/04 05:40:54;;;;;;;0.30;0.30;;;;;;;;;;5073246;28;20025;-83
2023/11/04 05:43:20;;;;;;;0.75;0.50;;;;;;;;;;5072906;28;20131;-83
2023/11/04 05:45:46;;;;;;;0.30;0.30;;;;;;;;;;5073172;28;20147;-83
2023/11/04 05:48:12;;;;;;;0.37;0.37;;;;;;;;;;5073943;28;20028;-83
2023/11/04 05:50:38;;;;;;;0.60;0.60;;;;;;;;;;5072530;28;20336;-84
2023/11/04 05:53:05;;;;;;;0.40;0.40;;;;;;;;;;5073475;28;20484;-84
2023/11/04 05:55:31;;;;;;;0.32;0.32;;;;;;;;;;5073420;28;20052;-83
2023/11/04 05:57:58;;;;;;;0.40;0.40;;;;;;;;;;5074262;28;20028;-83
2023/11/04 06:00:24;;;;;;;0.63;0.47;;;;;;;;;;5072799;28;20567;-82
2023/11/04 06:02:50;;;;;;;0.30;0.30;;;;;;;;;;5074995;28;20025;-83
2023/11/04 06:05:16;;;;;;;0.95;0.55;;;9.80;86.20;;;;;;5072903;28;20028;-84
2023/11/04 06:07:43;;;;;;;0.38;0.38;;;;;;;;;;5090132;28;20484;-84
2023/11/04 06:10:09;;;;;;;0.30;0.30;;;;;;;;;;5090034;28;20032;-84
2023/11/04 06:12:35;;;;;;;0.52;0.32;;;;;;;;;;5090972;28;20035;-83
2023/11/04 06:15:01;;;;;;;0.40;0.40;;;;;;;;;;5086477;28;20119;-84
2023/11/04 06:17:27;;;;;;;0.38;0.38;;;;;;;;;;5091646;28;20024;-83
2023/11/04 06:19:54;;;;;;;0.50;0.50;;;9.60;86.50;;;;;;5091627;28;20024;-83
2023/11/04 06:22:20;;;;;;;0.40;0.40;;;;;;;;;;5090655;28;20426;-83
2023/11/04 06:24:46;;;;;;;0.70;0.70;;;;;;;;;;5092288;28;20028;-83
2023/11/04 06:27:12;;;;;;;0.50;0.50;;;;;;;;;;5086001;28;20020;-83
2023/11/04 06:29:38;;;;;;;0.90;0.50;;;;;;;;;;5091135;28;20054;-83
2023/11/04 06:32:04;;;;;;;0.40;0.40;;;;;;;;;;5084243;28;20067;-82
2023/11/04 06:34:30;;;;;;;0.50;0.50;;;;;;;;;;5083478;28;20028;-82
2023/11/04 06:36:56;;;;;;;0.98;0.47;;;;;;;;;;5090126;28;20032;-83
2023/11/04 06:39:22;;;;;;;0.80;0.80;;;;;;;;;;5091487;28;20518;-82
2023/11/04 06:41:48;;;;;;;0.60;0.60;;;;;;;;;;5069746;28;20017;-83
2023/11/04 06:44:14;;;;;;;0.45;0.45;;;;;;;;;;5066128;28;20586;-85
2023/11/04 06:46:46;;;;;;;0.60;0.60;;;8.30;99.90;;;;;;5061814;28;20039;-83
2023/11/04 06:49:12;;;;;;;0.52;0.52;;;;;;;;;;5059602;28;20021;-82
2023/11/04 06:51:38;;;;;;;0.50;0.50;;;;;;;;;;5059572;28;20037;-82
2023/11/04 06:54:05;;;;;;;0.50;0.50;;;;;;;;;;5061389;28;20052;-83
2023/11/04 06:56:32;;;;;;;0.60;0.60;;;;;;;;;;5066868;28;20020;-84
2023/11/04 06:58:58;;;;;;;0.82;0.82;;;;;;;;;;5064488;28;20099;-83
2023/11/04 07:01:24;;;;;;;0.80;0.80;;;;;;;;;;5068206;28;20120;-81
2023/11/04 07:03:50;;;;;;;0.40;0.40;;;;;;;;;;5072815;28;20062;-83
2023/11/04 07:06:17;;;;;;;0.50;0.50;;;8.50;99.90;;;;;;5069609;28;20036;-83
2023/11/04 07:08:44;;;;;;;0.60;0.60;;;8.70;99.90;;;;;;5070475;28;20024;-82
2023/11/04 07:11:12;;;;;;;0.70;0.70;;;8.80;99.90;;;;;;5078055;28;20035;-83
2023/11/04 07:13:38;;;;;;;0.43;0.43;;;;;;;;;;5071239;28;20035;-83
2023/11/04 07:16:05;;;;;;;0.50;0.50;;;8.80;99.90;;;;;;5066576;28;20021;-81
2023/11/04 07:18:31;;;;;;;0.60;0.60;;;;;;;;;;5076264;28;20408;-87
2023/11/04 07:20:59;;;;;;;0.40;0.40;;;9.00;99.10;;;;;;5062346;28;20056;-85
2023/11/04 07:23:26;;;;;;;4.07;0.60;;;8.80;99.10;;;;;;5079307;28;20025;-85
2023/11/04 07:25:52;;;;;;;0.60;0.50;;;;;;;;;;5083411;28;20097;-86
2023/11/04 07:28:18;;;;;;;0.65;0.65;;;;;;;;;;5079156;28;20021;-85
2023/11/04 07:30:44;;;;;;;0.65;0.52;;;;;;;;;;5076228;28;20550;-85
2023/11/04 07:33:10;;;;;;;0.50;0.50;;;;;;;;;;5079923;28;20036;-85
2023/11/04 07:35:36;;;;;;;0.70;0.70;;;;;;;;;;5082840;28;20448;-86
2023/11/04 07:38:02;;;;;;;0.80;0.80;;;;;;;;;;5079077;28;20104;-87
2023/11/04 07:40:28;;;;;;;0.60;0.60;;;;;;;;;;5083202;28;20023;-85
2023/11/04 07:42:54;;;;;;;0.93;0.57;;;;;;;;;;5079449;28;20033;-85
2023/11/04 07:45:20;;;;;;;0.70;0.70;;;;;;;;;;5081409;28;20039;-86
2023/11/04 07:47:46;;;;;;;0.50;0.50;;;;;;;;;;5079614;28;20481;-85
2023/11/04 07:50:13;;;;;;;0.60;0.60;;;;;;;;;;5080688;28;20024;-86
2023/11/04 07:52:42;;;;;;;0.88;0.52;;;;;;;;;;5070038;28;20036;-86
2023/11/04 07:55:11;;;;;;;1.17;0.63;;;9.00;99.90;;;;;;5070452;28;20032;-86
2023/11/04 07:57:37;;;;;;;1.08;0.52;;;;;;;;;;5080682;28;20129;-86
2023/11/04 08:00:10;;;;;;;0.60;0.60;;;9.00;99.90;;;;;;5082018;28;20504;-85
2023/11/04 08:02:40;;;;;;;1.65;0.60;;;9.10;99.50;;;;;;5081901;28;20099;-87
2023/11/04 08:05:09;;;;;;;0.60;0.60;;;9.20;99.30;;;;;;5073386;28;20020;-88
2023/11/04 08:07:35;;;;;;;0.60;0.60;;;;;;;;;;5087880;28;20500;-88
2023/11/04 08:10:04;;;;;;;0.60;0.60;;;;;;;;;;5089686;28;20484;-88
2023/11/04 08:12:30;;;;;;;0.50;0.50;;;;;;;;;;5089470;28;20027;-86
2023/11/04 08:14:56;;;;;;;0.60;0.60;;;;;;;;;;5089908;28;20020;-89
2023/11/04 08:17:22;;;;;;;0.40;0.40;;;;;;;;;;5088360;28;20020;-88
2023/11/04 08:19:48;;;;;;;0.52;0.52;;;;;;;;;;5090056;28;20026;-92
2023/11/04 08:22:14;;;;;;;0.47;0.47;;;9.80;96.70;;;;;;5085289;28;20032;-89
2023/11/04 08:24:40;;;;;;;0.40;0.40;;;;;;;;;;5089299;28;20032;-88
2023/11/04 08:27:07;;;;;;;0.60;0.60;;;;;;;;;;5060003;28;20048;-88
2023/11/04 08:29:33;;;;;;;0.40;0.40;;;;;;;;;;5068356;28;20028;-88
2023/11/04 08:31:59;;;;;;;0.45;0.45;;;;;;;;;;5084399;28;20046;-90
2023/11/04 08:34:25;;;;;;;0.45;0.45;;;;;;;;;;5072197;28;20035;-87
2023/11/04 08:36:51;;;;;;;0.70;0.70;;;;;;;;;;5074041;28;20115;-89
2023/11/04 08:39:17;;;;;;;1.05;0.70;;;;;;;;;;5079036;28;20060;-88
2023/11/04 08:41:44;;;;;;;0.70;0.70;;;;;;;;;;5059315;28;20075;-87
2023/11/04 08:44:11;;;;;;;1.00;1.00;;;;;;;;;;5058301;28;20223;-91
2023/11/04 08:46:37;;;;;;;2.20;2.10;;;;;;;;;;5059002;28;20021;-88
2023/11/04 08:49:04;;;;;;;1.45;0.73;;;;;;;;;;5067968;28;20074;-84
2023/11/04 08:51:30;;;;;;;0.60;0.60;;;;;;;;;;5054875;28;20439;-84
2023/11/04 08:53:56;;;;;;;0.40;0.40;;;;;;;;;;5068415;28;20058;-82
2023/11/04 08:56:22;;;;;;;1.30;1.30;;;;;;;;;;5074135;28;20024;-91
2023/11/04 08:58:48;;;;;;;0.93;0.93;;;;;;;;;;5061690;28;20033;-92
2023/11/04 09:01:14;;;;;;;0.20;0.20;;;;;;;;;;5062050;28;20029;-92
2023/11/04 09:03:40;;;;;;;0.40;0.40;;;;;;;;;;5073468;28;20035;-93
2023/11/04 09:06:07;;;;;;;1.60;1.13;;;23.40;46.20;;;;;;5070291;28;20525;-93
2023/11/04 09:08:33;;;;;;;0.40;0.40;;;27.20;42.70;;;;;;5076765;28;20055;-91
2023/11/04 09:10:59;;;;;;;1.20;1.10;;;;;;;;;;5075670;28;20020;-87
2023/11/04 09:13:26;;;;;;;0.50;0.45;;;;;;;;;;5061453;28;20128;-90
2023/11/04 09:15:53;;;;;;;0.20;0.20;;;;;;;;;;5090503;28;20016;-91
2023/11/04 09:18:19;;;;;;;0.10;0.10;;;;;;;;;;5090488;28;20068;-92
2023/11/04 09:20:45;;;;;;;0.60;0.60;;;;;;;;;;5091220;28;20015;-91
2023/11/04 09:23:12;;;;;;;0.68;0.30;;;;;;;;;;5089677;28;20035;-90
2023/11/04 09:25:38;;;;;;;3.72;1.58;;;;;;;;;;5059948;28;20032;-90
2023/11/04 09:28:04;;;;;;;0.35;0.30;;;;;;;;;;5084961;28;20024;-92
2023/11/04 09:30:30;;;;;;;0.30;0.30;;;;;;;;;;5089413;28;20509;-90
2023/11/04 09:32:56;;;;;;;0.20;0.20;;;;;;;;;;5088626;28;20036;-89
2023/11/04 09:35:22;;;;;;;0.10;0.10;;;40.80;24.00;;;;;;5092483;28;20047;-91
2023/11/04 09:37:48;;;;;;;0.40;0.25;;;40.00;32.00;;;;;;5090017;28;20098;-89
2023/11/04 09:40:14;;;;;;;2.57;0.30;;;40.30;23.90;;;;;;5092150;28;20606;-94
2023/11/04 09:42:41;;;;;;;0.20;0.10;;;40.30;31.80;;;;;;5072423;28;20570;-93
2023/11/04 09:45:07;;;;;;;0.20;0.20;;;40.30;22.70;;;;;;5057705;28;20157;-90
2023/11/04 09:47:33;;;;;;;;;;;40.60;23.60;;;;;;5060192;28;20031;-90
2023/11/04 09:49:59;;;;;;;0.10;0.10;;;41.30;30.90;;;;;;5073582;28;19912;-91
2023/11/04 09:52:26;;;;;;;0.30;0.20;;;41.60;23.50;;;;;;5067243;28;20155;-89
2023/11/04 09:54:53;;;;;;;0.85;0.20;;;41.00;22.20;;;;;;5070668;28;20024;-90
2023/11/04 09:57:19;;;;;;;0.20;0.20;;;40.20;22.30;;;;;;5083054;28;20039;-89
2023/11/04 09:59:45;;;;;;;1.27;0.32;;;40.00;27.00;;;;;;5078703;28;20257;-92
2023/11/04 10:02:11;;;;;;;0.10;0.10;;;39.30;22.30;;;;;;5072365;28;20111;-91
2023/11/04 10:04:40;;;;;;;;;;;38.90;22.70;;;;;;5077400;28;20028;-93
2023/11/04 10:07:06;;;;;;;0.13;0.10;;;;;;;;;;5071157;28;19912;-87
2023/11/04 10:09:35;;;;;;;0.38;0.20;;;33.80;33.50;;;;;;5071993;28;20029;-89
2023/11/04 10:12:03;;;;;;;0.47;0.10;;;32.80;29.90;;;;;;5072405;28;20040;-89
2023/11/04 10:14:30;;;;;;;0.68;0.20;;;31.20;25.70;;;;;;5083286;28;20193;-91
2023/11/04 10:16:56;;;;;;;;;;;31.20;26.10;;;;;;5085303;28;20035;-89
2023/11/04 10:19:22;;;;;;;0.43;0.20;;;;;;;;;;5071922;28;20288;-89
2023/11/04 10:21:48;;;;;;;1.27;0.30;;;;;;;;;;5072217;28;20024;-89
2023/11/04 10:24:15;;;;;;;0.30;0.20;;;29.10;27.70;;;;;;5071849;28;20255;-87
2023/11/04 10:26:42;;;;;;;0.25;0.20;;;28.20;27.60;;;;;;5070927;28;20060;-90
2023/11/04 10:29:08;;;;;;;0.68;0.20;;;;;;;;;;5069582;28;20020;-89
2023/11/04 10:31:35;;;;;;;1.25;0.30;;;22.30;33.10;;;;;;5077773;28;20031;-93
2023/11/04 10:34:04;;;;;;;1.52;0.35;;;20.60;36.70;;;;;;5078295;28;20032;-91
2023/11/04 10:36:31;;;;;;;2.05;0.55;;;19.30;53.60;;;;;;5078767;28;20032;-89
2023/11/04 10:39:03;;;;;;;0.43;0.20;;;19.00;40.60;;;;;;5071833;28;20025;-82
2023/11/04 10:41:40;;;;;;;2.42;0.40;;;19.00;54.90;;;;;;5066235;28;20025;-83
2023/11/04 10:44:18;;;;;;;0.50;0.30;;;18.00;42.00;;;;;;5065564;28;20045;-81
2023/11/04 10:47:06;;;;;;;0.85;0.55;;;17.80;58.40;;;;;;5062880;28;20963;-81
2023/11/04 10:49:50;;;;;;;1.02;0.43;;;18.00;43.30;;;;;;5064360;28;20024;-81
2023/11/04 10:52:19;;;;;;;1.27;0.40;;;18.00;43.90;;;;;;5064467;28;20050;-80
2023/11/04 10:55:14;;;;;;;0.55;0.40;;;17.70;59.60;;;;;;5063625;28;20029;-81
2023/11/04 10:57:54;;;;;;;0.55;0.40;;;17.10;46.10;;;;;;5081781;28;20109;-82
2023/11/04 11:00:23;;;;;;;0.40;0.40;;;16.30;46.60;;;;;;5061985;28;20111;-80
2023/11/04 11:02:51;;;;;;;0.55;0.55;;;;;;;;;;5069293;28;20388;-80
2023/11/04 11:05:22;;;;;;;0.40;0.40;;;;;;;;;;5070312;28;20082;-80
2023/11/04 11:07:48;;;;;;;0.93;0.47;;;;;;;;;;5072646;28;20100;-82
2023/11/04 11:10:19;;;;;;;0.50;0.50;;;15.00;69.50;;;;;;5073608;28;20025;-81
2023/11/04 11:12:45;;;;;;;2.60;0.50;;;;;;;;;;5065309;28;20076;-80
2023/11/04 11:15:11;;;;;;;1.75;0.57;;;18.40;58.20;;;;;;5063010;28;20059;-82
2023/11/04 11:17:37;;;;;;;1.02;0.43;;;14.50;73.50;;;;;;5080059;28;20016;-81
2023/11/04 11:20:03;;;;;;;0.85;0.82;;;15.10;57.80;;;;;;5072212;28;20530;-80
2023/11/04 11:22:30;;;;;;;3.03;0.40;;;;;;;;;;5073939;28;20373;-82
2023/11/04 11:24:57;;;;;;;1.55;0.50;;;;;;;;;;5062800;28;20465;-80
2023/11/04 11:27:23;;;;;;;;;;;14.90;57.60;;;;;;5062599;28;20028;-81
2023/11/04 11:29:50;;;;;;;0.85;0.45;;;14.90;55.60;;;;;;5060453;28;19914;-81
2023/11/04 11:32:16;;;;;;;1.77;0.50;;;;;;;;;;5062295;28;20039;-81
2023/11/04 11:34:54;;;;;;;1.45;0.70;;;15.80;59.70;;;;;;5064086;28;20107;-81
2023/11/04 11:37:25;;;;;;;0.85;0.85;;;14.80;56.70;;;;;;5082160;28;20404;-80
2023/11/04 11:39:51;;;;;;;0.73;0.70;;;;;;;;;;5071644;28;20490;-80
2023/11/04 11:42:17;;;;;;;1.25;0.57;;;;;;;;;;5060899;28;20033;-82
2023/11/04 11:44:43;;;;;;;0.40;0.40;;;14.40;58.50;;;;;;5074804;28;20386;-80
2023/11/04 11:47:10;;;;;;;0.55;0.50;;;;;;;;;;5081370;28;20023;-82
2023/11/04 11:49:37;;;;;;;4.78;0.70;;;14.10;59.20;;;;;;5064412;28;20184;-81
2023/11/04 11:52:04;;;;;;;0.73;0.73;;;;;;;;;;5071497;28;20043;-81
2023/11/04 11:54:30;;;;;;;0.40;0.40;;;14.00;59.70;;;;;;5082125;28;20036;-82
2023/11/04 11:56:57;;;;;;;0.85;0.82;;;;;;;;;;5086006;28;20032;-80
2023/11/04 11:59:23;;;;;;;0.77;0.50;;;;;;;;;;5080744;28;20020;-81
2023/11/04 12:01:50;;;;;;;2.53;0.70;;;;;;;;;;5063867;28;20020;-80
2023/11/04 12:04:16;;;;;;;1.48;0.60;;;;;;;;;;5068715;28;20366;-81
2023/11/04 12:06:42;;;;;;;1.95;0.40;;;;;;;;;;5069894;28;20048;-80
2023/11/04 12:09:11;;;;;;;0.63;0.60;;;;;;;;;;5081454;28;20021;-79
2023/11/04 12:11:37;;;;;;;2.05;0.60;;;;;;;;;;5078204;28;20027;-80
2023/11/04 12:14:03;;;;;;;0.50;0.50;;;;;;;;;;5081999;28;20435;-81
2023/11/04 12:16:30;;;;;;;1.08;0.50;;;13.70;62.20;;;;;;5078273;28;20017;-80
2023/11/04 12:18:56;;;;;;;0.63;0.60;;;;;;;;;;5076405;28;20028;-81
2023/11/04 12:21:22;;;;;;;0.30;0.30;;;;;;;;;;5070605;28;20020;-81
2023/11/04 12:23:48;;;;;;;0.77;0.60;;;;;;;;;;5071985;28;20032;-80
2023/11/04 12:26:14;;;;;;;1.92;1.40;;;;;;;;;;5070846;28;20020;-80
2023/11/04 12:28:42;;;;;;;1.17;0.63;;;12.80;70.20;;;;;;5065436;28;20076;-79
2023/11/04 12:31:08;;;;;;;0.52;0.52;;;;;;;;;;5061675;28;20026;-79
2023/11/04 12:33:37;;;;;;;0.50;0.50;;;12.70;71.20;;;;;;5075786;28;20039;-79
2023/11/04 12:36:06;;;;;;;0.75;0.60;;;12.80;92.00;;;;;;5071340;28;20079;-80
2023/11/04 12:38:32;;;;;;;1.40;0.82;;;;;;;;;;5068601;28;20025;-81
2023/11/04 12:41:00;;;;;;;0.68;0.50;;;12.60;72.80;;;;;;5058538;28;20075;-80
2023/11/04 12:43:26;;;;;;;2.10;0.65;;;;;;;;;;5058322;28;20577;-80
2023/11/04 12:45:56;;;;;;;0.52;0.52;;;12.60;73.80;;;;;;5059125;28;20033;-81
2023/11/04 12:48:22;;;;;;;0.40;0.40;;;;;;;;;;5075190;28;20012;-81
2023/11/04 12:50:48;;;;;;;0.65;0.60;;;;;;;;;;5059800;28;20056;-81
2023/11/04 12:53:15;;;;;;;1.42;0.63;;;;;;;;;;5061416;28;20021;-82
2023/11/04 12:55:41;;;;;;;0.50;0.50;;;;;;;;;;5071733;28;20107;-81
2023/11/04 12:58:07;;;;;;;0.68;0.60;;;;;;;;;;5081539;28;20024;-81
2023/11/04 13:00:34;;;;;;;0.88;0.52;;;;;;;;;;5071043;28;20031;-82
2023/11/04 13:03:00;;;;;;;0.73;0.73;;;;;;;;;;5064704;28;20024;-81
2023/11/04 13:05:26;;;;;;;0.45;0.43;;;;;;;;;;5070991;28;20090;-81
2023/11/04 13:07:51;;;;;;;0.82;0.82;;;12.60;96.80;;;;;;5062373;28;20107;-82
2023/11/04 13:10:18;;;;;;;0.60;0.60;;;;;;;;;;5068731;28;20607;-81
2023/11/04 13:12:45;;;;;;;0.50;0.50;;;;;;;;;;5068908;28;20508;-81
2023/11/04 13:15:12;;;;;;;0.53;0.53;;;;;;;;;;5068982;28;20511;-80
2023/11/04 13:17:39;;;;;;;0.40;0.40;;;;;;;;;;5055797;28;20485;-80
2023/11/04 13:20:06;;;;;;;0.30;0.30;;;13.30;75.80;;;;;;5067889;28;20055;-80
2023/11/04 13:22:32;;;;;;;0.45;0.45;;;13.20;92.80;;;;;;5068347;28;20025;-81
2023/11/04 13:24:58;;;;;;;0.50;0.50;;;13.30;75.80;;;;;;5081559;28;20632;-80
2023/11/04 13:27:25;;;;;;;0.40;0.40;;;;;;;;;;5066915;28;20028;-81
2023/11/04 13:29:54;;;;;;;0.40;0.40;;;13.00;92.20;;;;;;5069621;28;20040;-81
2023/11/04 13:32:21;;;;;;;0.40;0.40;;;13.20;73.90;;;;;;5068953;28;20040;-81
2023/11/04 13:34:47;;;;;;;0.65;0.65;;;;;;;;;;5068594;28;20028;-80
2023/11/04 13:37:13;;;;;;;0.90;0.80;;;;;;;;;;5068360;28;20228;-81
2023/11/04 13:39:39;;;;;;;1.35;0.95;;;;;;;;;;5083451;28;20555;-82
2023/11/04 13:42:05;;;;;;;0.80;0.60;;;;;;;;;;5091918;28;20046;-81
2023/11/04 13:44:31;;;;;;;0.50;0.50;;;;;;;;;;5091528;28;20044;-81
2023/11/04 13:46:57;;;;;;;0.43;0.43;;;;;;;;;;5091016;28;20196;-81
2023/11/04 13:49:22;;;;;;;1.95;0.50;;;12.90;80.00;;;;;;5090642;28;20028;-81
2023/11/04 13:51:48;;;;;;;0.40;0.40;;;;;;;;;;5090936;28;20104;-80
2023/11/04 13:54:14;;;;;;;0.60;0.60;;;;;;;;;;5090021;28;20032;-80
2023/11/04 13:56:40;;;;;;;0.40;0.40;;;13.10;80.50;;;;;;5091274;28;20098;-80
2023/11/04 13:59:08;;;;;;;0.50;0.50;;;;;;;;;;5090629;28;20032;-80
2023/11/04 14:01:34;;;;;;;0.40;0.40;;;13.20;80.50;;;;;;5091347;28;20404;-82
2023/11/04 14:04:01;;;;;;;0.30;0.30;;;;;;;;;;5088400;28;20039;-81
2023/11/04 14:06:26;;;;;;;0.40;0.40;;;13.20;97.80;;;;;;5070985;28;20017;-81
2023/11/04 14:08:52;;;;;;;0.50;0.50;;;13.10;84.80;;;;;;5073135;28;20048;-80